sensor_id;sensor_type;location;lat;lon;timestamp;temperature;humidity
2158;DHT22;41972;48.774;9.282;2024-02-23T00:00:34;6.20;99.90
2158;DHT22;41972;48.774;9.282;2024-02-23T00:03:00;6.10;99.90
2158;DHT22;41972;48.774;9.282;2024-02-23T00:05:26;6.00;99.90
2158;DHT22;41972;48.774;9.282;2024-02-23T00:07:51;6.00;99.90
2158;DHT22;41972;48.774;9.282;2024-02-23T00:10:17;6.00;99.90
2158;DHT22;41972;48.774;9.282;2024-02-23T00:12:42;6.00;99.90
2158;DHT22;41972;48.774;9.282;2024-02-23T00:15:10;6.10;99.90
2158;DHT22;41972;48.774;9.282;2024-02-23T00:17:35;5.90;99.90
2158;DHT22;41972;48.774;9.282;2024-02-23T00:20:01;6.00;99.90
2158;DHT22;41972;48.774;9.282;2024-02-23T00:22:27;6.00;99.90
2158;DHT22;41972;48.774;9.282;2024-02-23T00:24:52;5.90;99.90
2158;DHT22;41972;48.774;9.282;2024-02-23T00:27:18;6.00;99.90
2158;DHT22;41972;48.774;9.282;2024-02-23T00:29:43;5.90;99.90
2158;DHT22;41972;48.774;9.282;2024-02-23T00:32:10;5.80;99.90
2158;DHT22;41972;48.774;9.282;2024-02-23T00:34:35;5.90;99.90
2158;DHT22;41972;48.774;9.282;2024-02-23T00:37:01;6.00;99.90
2158;DHT22;41972;48.774;9.282;2024-02-23T00:39:27;5.90;99.90
2158;DHT22;41972;48.774;9.282;2024-02-23T00:41:52;6.00;99.90
2158;DHT22;41972;48.774;9.282;2024-02-23T00:44:18;5.90;99.90
2158;DHT22;41972;48.774;9.282;2024-02-23T00:46:44;6.00;99.90
2158;DHT22;41972;48.774;9.282;2024-02-23T00:49:09;5.90;99.90
2158;DHT22;41972;48.774;9.282;2024-02-23T00:51:35;6.00;99.90
2158;DHT22;41972;48.774;9.282;2024-02-23T00:54:00;6.00;99.90
2158;DHT22;41972;48.774;9.282;2024-02-23T00:56:25;5.80;99.90
2158;DHT22;41972;48.774;9.282;2024-02-23T00:58:52;5.60;99.90
2158;DHT22;41972;48.774;9.282;2024-02-23T01:01:18;5.70;99.90
2158;DHT22;41972;48.774;9.282;2024-02-23T01:03:44;5.80;99.90
2158;DHT22;41972;48.774;9.282;2024-02-23T01:06:09;5.90;99.90
2158;DHT22;41972;48.774;9.282;2024-02-23T01:08:35;5.80;99.90
2158;DHT22;41972;48.774;9.282;2024-02-23T01:11:01;5.80;99.90
2158;DHT22;41972;48.774;9.282;2024-02-23T01:13:27;6.00;99.90
2158;DHT22;41972;48.774;9.282;2024-02-23T01:15:52;5.90;99.90
2158;DHT22;41972;48.774;9.282;2024-02-23T01:18:19;5.80;99.90
2158;DHT22;41972;48.774;9.282;2024-02-23T01:20:45;5.70;99.90
2158;DHT22;41972;48.774;9.282;2024-02-23T01:23:10;5.70;99.90
2158;DHT22;41972;48.774;9.282;2024-02-23T01:25:36;5.60;99.90
2158;DHT22;41972;48.774;9.282;2024-02-23T01:28:02;5.70;99.90
2158;DHT22;41972;48.774;9.282;2024-02-23T01:30:28;5.70;99.90
2158;DHT22;41972;48.774;9.282;2024-02-23T01:32:54;5.70;99.90
2158;DHT22;41972;48.774;9.282;2024-02-23T01:35:19;5.70;99.90
2158;DHT22;41972;48.774;9.282;2024-02-23T01:37:45;5.80;99.90
2158;DHT22;41972;48.774;9.282;2024-02-23T01:40:10;5.70;99.90
2158;DHT22;41972;48.774;9.282;2024-02-23T01:42:36;5.70;99.90
2158;DHT22;41972;48.774;9.282;2024-02-23T01:45:02;5.60;99.90
2158;DHT22;41972;48.774;9.282;2024-02-23T01:47:29;5.60;99.90
2158;DHT22;41972;48.774;9.282;2024-02-23T01:49:57;5.70;99.90
2158;DHT22;41972;48.774;9.282;2024-02-23T01:52:23;5.70;99.90
2158;DHT22;41972;48.774;9.282;2024-02-23T01:54:49;5.80;99.90
2158;DHT22;41972;48.774;9.282;2024-02-23T01:57:15;5.70;99.90
2158;DHT22;41972;48.774;9.282;2024-02-23T01:59:41;5.60;99.90
2158;DHT22;41972;48.774;9.282;2024-02-23T02:02:07;5.50;99.90
2158;DHT22;41972;48.774;9.282;2024-02-23T02:04:34;5.50;99.90
2158;DHT22;41972;48.774;9.282;2024-02-23T02:07:00;5.50;99.90
2158;DHT22;41972;48.774;9.282;2024-02-23T02:09:26;5.50;99.90
2158;DHT22;41972;48.774;9.282;2024-02-23T02:11:51;5.50;99.90
2158;DHT22;41972;48.774;9.282;2024-02-23T02:14:17;5.60;99.90
2158;DHT22;41972;48.774;9.282;2024-02-23T02:16:43;5.60;99.90
2158;DHT22;41972;48.774;9.282;2024-02-23T02:19:12;5.60;99.90
2158;DHT22;41972;48.774;9.282;2024-02-23T02:21:39;5.50;99.90
2158;DHT22;41972;48.774;9.282;2024-02-23T02:24:06;5.50;99.90
2158;DHT22;41972;48.774;9.282;2024-02-23T02:26:32;5.50;99.90
2158;DHT22;41972;48.774;9.282;2024-02-23T02:28:57;5.30;99.90
2158;DHT22;41972;48.774;9.282;2024-02-23T02:31:23;5.10;99.90
2158;DHT22;41972;48.774;9.282;2024-02-23T02:33:48;5.20;99.90
2158;DHT22;41972;48.774;9.282;2024-02-23T02:36:14;5.00;99.90
2158;DHT22;41972;48.774;9.282;2024-02-23T02:38:40;5.00;99.90
2158;DHT22;41972;48.774;9.282;2024-02-23T02:41:06;5.10;99.90
2158;DHT22;41972;48.774;9.282;2024-02-23T02:43:32;4.90;99.90
2158;DHT22;41972;48.774;9.282;2024-02-23T02:45:58;4.80;99.90
2158;DHT22;41972;48.774;9.282;2024-02-23T02:48:24;4.90;99.90
2158;DHT22;41972;48.774;9.282;2024-02-23T02:50:49;4.80;99.90
2158;DHT22;41972;48.774;9.282;2024-02-23T02:53:16;4.70;99.90
2158;DHT22;41972;48.774;9.282;2024-02-23T02:55:42;4.70;99.90
2158;DHT22;41972;48.774;9.282;2024-02-23T02:58:09;4.70;99.90
2158;DHT22;41972;48.774;9.282;2024-02-23T03:00:34;4.90;99.90
2158;DHT22;41972;48.774;9.282;2024-02-23T03:03:00;4.70;99.90
2158;DHT22;41972;48.774;9.282;2024-02-23T03:05:25;4.70;99.90
2158;DHT22;41972;48.774;9.282;2024-02-23T03:07:51;4.60;99.90
2158;DHT22;41972;48.774;9.282;2024-02-23T03:10:17;4.70;99.90
2158;DHT22;41972;48.774;9.282;2024-02-23T03:12:42;4.80;99.90
2158;DHT22;41972;48.774;9.282;2024-02-23T03:15:08;4.70;99.90
2158;DHT22;41972;48.774;9.282;2024-02-23T03:17:35;4.70;99.90
2158;DHT22;41972;48.774;9.282;2024-02-23T03:20:00;4.80;99.90
2158;DHT22;41972;48.774;9.282;2024-02-23T03:22:26;4.80;99.90
2158;DHT22;41972;48.774;9.282;2024-02-23T03:24:52;4.90;99.90
2158;DHT22;41972;48.774;9.282;2024-02-23T03:27:17;5.00;99.90
2158;DHT22;41972;48.774;9.282;2024-02-23T03:29:43;4.90;99.90
2158;DHT22;41972;48.774;9.282;2024-02-23T03:32:08;4.90;99.90
2158;DHT22;41972;48.774;9.282;2024-02-23T03:34:34;4.70;99.90
2158;DHT22;41972;48.774;9.282;2024-02-23T03:37:00;4.70;99.90
2158;DHT22;41972;48.774;9.282;2024-02-23T03:39:27;4.60;99.90
2158;DHT22;41972;48.774;9.282;2024-02-23T03:41:54;4.70;99.90
2158;DHT22;41972;48.774;9.282;2024-02-23T03:44:19;4.70;99.90
2158;DHT22;41972;48.774;9.282;2024-02-23T03:46:45;4.80;99.90
2158;DHT22;41972;48.774;9.282;2024-02-23T03:49:10;4.80;99.90
2158;DHT22;41972;48.774;9.282;2024-02-23T03:51:37;4.90;99.90
2158;DHT22;41972;48.774;9.282;2024-02-23T03:54:05;4.80;99.90
2158;DHT22;41972;48.774;9.282;2024-02-23T03:56:38;4.90;99.90
2158;DHT22;41972;48.774;9.282;2024-02-23T03:59:04;5.00;99.90
2158;DHT22;41972;48.774;9.282;2024-02-23T04:01:30;5.00;99.90
2158;DHT22;41972;48.774;9.282;2024-02-23T04:03:55;4.90;99.90
2158;DHT22;41972;48.774;9.282;2024-02-23T04:06:21;5.00;99.90
2158;DHT22;41972;48.774;9.282;2024-02-23T04:08:46;5.10;99.90
2158;DHT22;41972;48.774;9.282;2024-02-23T04:11:15;5.10;99.90
2158;DHT22;41972;48.774;9.282;2024-02-23T04:13:40;5.00;99.90
2158;DHT22;41972;48.774;9.282;2024-02-23T04:16:06;5.00;99.90
2158;DHT22;41972;48.774;9.282;2024-02-23T04:18:31;5.10;99.90
2158;DHT22;41972;48.774;9.282;2024-02-23T04:20:57;5.00;99.90
2158;DHT22;41972;48.774;9.282;2024-02-23T04:23:23;5.00;99.90
2158;DHT22;41972;48.774;9.282;2024-02-23T04:25:48;4.90;99.90
2158;DHT22;41972;48.774;9.282;2024-02-23T04:28:16;4.90;99.90
2158;DHT22;41972;48.774;9.282;2024-02-23T04:30:41;4.80;99.90
2158;DHT22;41972;48.774;9.282;2024-02-23T04:33:07;4.90;99.90
2158;DHT22;41972;48.774;9.282;2024-02-23T04:35:33;4.90;99.90
2158;DHT22;41972;48.774;9.282;2024-02-23T04:37:58;4.90;99.90
2158;DHT22;41972;48.774;9.282;2024-02-23T04:40:24;4.90;99.90
2158;DHT22;41972;48.774;9.282;2024-02-23T04:42:49;5.00;99.90
2158;DHT22;41972;48.774;9.282;2024-02-23T04:45:15;5.00;99.90
2158;DHT22;41972;48.774;9.282;2024-02-23T04:47:40;4.80;99.90
2158;DHT22;41972;48.774;9.282;2024-02-23T04:50:06;4.70;99.90
2158;DHT22;41972;48.774;9.282;2024-02-23T04:52:32;4.50;99.90
2158;DHT22;41972;48.774;9.282;2024-02-23T04:54:57;4.30;99.90
2158;DHT22;41972;48.774;9.282;2024-02-23T04:57:23;4.40;99.90
2158;DHT22;41972;48.774;9.282;2024-02-23T04:59:48;4.40;99.90
2158;DHT22;41972;48.774;9.282;2024-02-23T05:02:14;4.30;99.90
2158;DHT22;41972;48.774;9.282;2024-02-23T05:04:40;4.20;99.90
2158;DHT22;41972;48.774;9.282;2024-02-23T05:07:05;4.30;99.90
2158;DHT22;41972;48.774;9.282;2024-02-23T05:09:31;4.10;99.90
2158;DHT22;41972;48.774;9.282;2024-02-23T05:11:57;4.10;99.90
2158;DHT22;41972;48.774;9.282;2024-02-23T05:14:23;4.10;99.90
2158;DHT22;41972;48.774;9.282;2024-02-23T05:16:48;4.30;99.90
2158;DHT22;41972;48.774;9.282;2024-02-23T05:19:14;4.30;99.90
2158;DHT22;41972;48.774;9.282;2024-02-23T05:21:39;4.20;99.90
2158;DHT22;41972;48.774;9.282;2024-02-23T05:24:05;4.20;99.90
2158;DHT22;41972;48.774;9.282;2024-02-23T05:26:31;4.10;99.90
2158;DHT22;41972;48.774;9.282;2024-02-23T05:28:57;4.00;99.90
2158;DHT22;41972;48.774;9.282;2024-02-23T05:31:49;3.90;99.90
2158;DHT22;41972;48.774;9.282;2024-02-23T05:34:15;3.90;99.90
2158;DHT22;41972;48.774;9.282;2024-02-23T05:36:40;3.90;99.90
2158;DHT22;41972;48.774;9.282;2024-02-23T05:39:06;3.90;99.90
2158;DHT22;41972;48.774;9.282;2024-02-23T05:41:33;3.90;99.90
2158;DHT22;41972;48.774;9.282;2024-02-23T05:43:59;3.90;99.90
2158;DHT22;41972;48.774;9.282;2024-02-23T05:46:24;3.90;99.90
2158;DHT22;41972;48.774;9.282;2024-02-23T05:48:49;3.80;99.90
2158;DHT22;41972;48.774;9.282;2024-02-23T05:51:15;3.80;99.90
2158;DHT22;41972;48.774;9.282;2024-02-23T05:53:40;4.00;99.90
2158;DHT22;41972;48.774;9.282;2024-02-23T05:56:06;3.90;99.90
2158;DHT22;41972;48.774;9.282;2024-02-23T05:58:31;3.80;99.90
2158;DHT22;41972;48.774;9.282;2024-02-23T06:00:57;3.80;99.90
2158;DHT22;41972;48.774;9.282;2024-02-23T06:03:23;3.80;99.90
2158;DHT22;41972;48.774;9.282;2024-02-23T06:05:48;3.60;99.90
2158;DHT22;41972;48.774;9.282;2024-02-23T06:08:13;3.50;99.90
2158;DHT22;41972;48.774;9.282;2024-02-23T06:10:39;3.50;99.90
2158;DHT22;41972;48.774;9.282;2024-02-23T06:13:06;3.40;99.90
2158;DHT22;41972;48.774;9.282;2024-02-23T06:15:31;3.40;99.90
2158;DHT22;41972;48.774;9.282;2024-02-23T06:17:57;3.40;99.90
2158;DHT22;41972;48.774;9.282;2024-02-23T06:20:23;3.30;99.90
2158;DHT22;41972;48.774;9.282;2024-02-23T06:22:48;3.10;99.90
2158;DHT22;41972;48.774;9.282;2024-02-23T06:25:14;3.00;99.90
2158;DHT22;41972;48.774;9.282;2024-02-23T06:27:39;2.90;99.90
2158;DHT22;41972;48.774;9.282;2024-02-23T06:30:05;2.80;99.90
2158;DHT22;41972;48.774;9.282;2024-02-23T06:32:30;2.90;99.90
2158;DHT22;41972;48.774;9.282;2024-02-23T06:34:56;2.80;99.90
2158;DHT22;41972;48.774;9.282;2024-02-23T06:37:21;2.70;99.90
2158;DHT22;41972;48.774;9.282;2024-02-23T06:39:47;2.70;99.90
2158;DHT22;41972;48.774;9.282;2024-02-23T06:42:20;2.80;99.90
2158;DHT22;41972;48.774;9.282;2024-02-23T06:44:45;2.90;99.90
2158;DHT22;41972;48.774;9.282;2024-02-23T06:47:11;2.90;99.90
2158;DHT22;41972;48.774;9.282;2024-02-23T06:49:40;3.00;99.90
2158;DHT22;41972;48.774;9.282;2024-02-23T06:52:06;2.90;99.90
2158;DHT22;41972;48.774;9.282;2024-02-23T06:54:31;2.90;99.90
2158;DHT22;41972;48.774;9.282;2024-02-23T06:56:57;3.10;99.90
2158;DHT22;41972;48.774;9.282;2024-02-23T06:59:23;3.30;99.90
2158;DHT22;41972;48.774;9.282;2024-02-23T07:01:49;3.50;99.90
2158;DHT22;41972;48.774;9.282;2024-02-23T07:04:15;3.70;99.90
2158;DHT22;41972;48.774;9.282;2024-02-23T07:06:41;3.80;99.90
2158;DHT22;41972;48.774;9.282;2024-02-23T07:09:06;4.00;99.90
2158;DHT22;41972;48.774;9.282;2024-02-23T07:11:32;4.10;99.90
2158;DHT22;41972;48.774;9.282;2024-02-23T07:13:57;4.30;99.90
2158;DHT22;41972;48.774;9.282;2024-02-23T07:16:22;4.50;99.90
2158;DHT22;41972;48.774;9.282;2024-02-23T07:18:48;4.50;99.90
2158;DHT22;41972;48.774;9.282;2024-02-23T07:21:13;4.50;99.90
2158;DHT22;41972;48.774;9.282;2024-02-23T07:23:41;4.70;99.90
2158;DHT22;41972;48.774;9.282;2024-02-23T07:26:07;4.60;99.90
2158;DHT22;41972;48.774;9.282;2024-02-23T07:28:33;4.70;99.90
2158;DHT22;41972;48.774;9.282;2024-02-23T07:30:58;4.60;99.90
2158;DHT22;41972;48.774;9.282;2024-02-23T07:33:24;4.60;99.90
2158;DHT22;41972;48.774;9.282;2024-02-23T07:35:49;4.60;99.90
2158;DHT22;41972;48.774;9.282;2024-02-23T07:38:16;4.50;99.90
2158;DHT22;41972;48.774;9.282;2024-02-23T07:40:43;4.60;99.90
2158;DHT22;41972;48.774;9.282;2024-02-23T07:43:09;4.50;99.90
2158;DHT22;41972;48.774;9.282;2024-02-23T07:45:36;4.60;99.90
2158;DHT22;41972;48.774;9.282;2024-02-23T07:48:02;4.70;99.90
2158;DHT22;41972;48.774;9.282;2024-02-23T07:50:28;4.70;99.90
2158;DHT22;41972;48.774;9.282;2024-02-23T07:52:53;4.90;99.90
2158;DHT22;41972;48.774;9.282;2024-02-23T07:55:19;4.90;99.90
2158;DHT22;41972;48.774;9.282;2024-02-23T07:57:44;4.90;99.90
2158;DHT22;41972;48.774;9.282;2024-02-23T08:00:10;5.00;99.90
2158;DHT22;41972;48.774;9.282;2024-02-23T08:02:36;5.00;99.90
2158;DHT22;41972;48.774;9.282;2024-02-23T08:05:01;5.10;99.90
2158;DHT22;41972;48.774;9.282;2024-02-23T08:07:27;5.00;99.90
2158;DHT22;41972;48.774;9.282;2024-02-23T08:09:53;5.00;99.90
2158;DHT22;41972;48.774;9.282;2024-02-23T08:12:19;5.10;99.90
2158;DHT22;41972;48.774;9.282;2024-02-23T08:14:45;5.00;99.90
2158;DHT22;41972;48.774;9.282;2024-02-23T08:17:13;4.90;99.90
2158;DHT22;41972;48.774;9.282;2024-02-23T08:19:38;4.90;99.90
2158;DHT22;41972;48.774;9.282;2024-02-23T08:22:04;5.10;99.90
2158;DHT22;41972;48.774;9.282;2024-02-23T08:24:29;5.20;99.90
2158;DHT22;41972;48.774;9.282;2024-02-23T08:26:55;5.00;99.90
2158;DHT22;41972;48.774;9.282;2024-02-23T08:29:20;5.30;99.90
2158;DHT22;41972;48.774;9.282;2024-02-23T08:31:46;5.40;99.90
2158;DHT22;41972;48.774;9.282;2024-02-23T08:34:11;5.80;99.90
2158;DHT22;41972;48.774;9.282;2024-02-23T08:36:37;5.50;99.90
2158;DHT22;41972;48.774;9.282;2024-02-23T08:39:03;5.30;99.90
2158;DHT22;41972;48.774;9.282;2024-02-23T08:41:30;5.40;99.90
2158;DHT22;41972;48.774;9.282;2024-02-23T08:43:55;5.50;99.90
2158;DHT22;41972;48.774;9.282;2024-02-23T08:46:21;5.60;99.90
2158;DHT22;41972;48.774;9.282;2024-02-23T08:48:47;5.30;99.90
2158;DHT22;41972;48.774;9.282;2024-02-23T08:51:12;5.70;99.90
2158;DHT22;41972;48.774;9.282;2024-02-23T08:53:38;5.20;99.90
2158;DHT22;41972;48.774;9.282;2024-02-23T08:56:06;5.40;99.90
2158;DHT22;41972;48.774;9.282;2024-02-23T08:58:32;5.90;99.90
2158;DHT22;41972;48.774;9.282;2024-02-23T09:00:58;6.10;99.90
2158;DHT22;41972;48.774;9.282;2024-02-23T09:03:23;5.90;99.90
2158;DHT22;41972;48.774;9.282;2024-02-23T09:05:49;6.10;99.90
2158;DHT22;41972;48.774;9.282;2024-02-23T09:08:15;6.00;99.90
2158;DHT22;41972;48.774;9.282;2024-02-23T09:10:41;5.80;99.90
2158;DHT22;41972;48.774;9.282;2024-02-23T09:13:06;5.80;99.90
2158;DHT22;41972;48.774;9.282;2024-02-23T09:15:32;6.00;99.90
2158;DHT22;41972;48.774;9.282;2024-02-23T09:17:57;5.90;99.90
2158;DHT22;41972;48.774;9.282;2024-02-23T09:20:23;5.90;99.90
2158;DHT22;41972;48.774;9.282;2024-02-23T09:22:48;6.30;99.90
2158;DHT22;41972;48.774;9.282;2024-02-23T09:25:14;6.40;99.90
2158;DHT22;41972;48.774;9.282;2024-02-23T09:27:40;6.10;99.90
2158;DHT22;41972;48.774;9.282;2024-02-23T09:30:11;6.00;99.90
2158;DHT22;41972;48.774;9.282;2024-02-23T09:32:37;6.20;99.90
2158;DHT22;41972;48.774;9.282;2024-02-23T09:35:02;6.10;99.90
2158;DHT22;41972;48.774;9.282;2024-02-23T09:37:28;6.10;99.90
2158;DHT22;41972;48.774;9.282;2024-02-23T09:39:54;5.90;99.90
2158;DHT22;41972;48.774;9.282;2024-02-23T09:42:22;6.00;99.90
2158;DHT22;41972;48.774;9.282;2024-02-23T09:44:58;6.60;99.90
2158;DHT22;41972;48.774;9.282;2024-02-23T09:47:28;6.40;99.90
2158;DHT22;41972;48.774;9.282;2024-02-23T09:49:54;6.60;99.90
2158;DHT22;41972;48.774;9.282;2024-02-23T09:52:21;6.40;99.90
2158;DHT22;41972;48.774;9.282;2024-02-23T09:54:47;7.30;99.90
2158;DHT22;41972;48.774;9.282;2024-02-23T09:57:14;7.60;99.90
2158;DHT22;41972;48.774;9.282;2024-02-23T09:59:40;7.60;99.90
2158;DHT22;41972;48.774;9.282;2024-02-23T10:02:08;7.10;99.90
2158;DHT22;41972;48.774;9.282;2024-02-23T10:04:38;7.90;99.90
2158;DHT22;41972;48.774;9.282;2024-02-23T10:07:05;8.90;99.90
2158;DHT22;41972;48.774;9.282;2024-02-23T10:09:31;8.00;99.90
2158;DHT22;41972;48.774;9.282;2024-02-23T10:11:57;7.90;99.90
2158;DHT22;41972;48.774;9.282;2024-02-23T10:14:22;7.90;99.90
2158;DHT22;41972;48.774;9.282;2024-02-23T10:16:48;7.20;99.90
2158;DHT22;41972;48.774;9.282;2024-02-23T10:19:19;6.50;99.90
2158;DHT22;41972;48.774;9.282;2024-02-23T10:21:45;6.30;99.90
2158;DHT22;41972;48.774;9.282;2024-02-23T10:24:11;6.50;99.90
2158;DHT22;41972;48.774;9.282;2024-02-23T10:26:36;6.90;99.90
2158;DHT22;41972;48.774;9.282;2024-02-23T10:29:02;6.60;99.90
2158;DHT22;41972;48.774;9.282;2024-02-23T10:31:30;6.70;99.90
2158;DHT22;41972;48.774;9.282;2024-02-23T10:33:58;7.00;99.90
2158;DHT22;41972;48.774;9.282;2024-02-23T10:36:25;6.70;99.90
2158;DHT22;41972;48.774;9.282;2024-02-23T10:38:55;6.80;99.90
2158;DHT22;41972;48.774;9.282;2024-02-23T10:41:22;7.10;99.90
2158;DHT22;41972;48.774;9.282;2024-02-23T10:43:48;7.00;99.90
2158;DHT22;41972;48.774;9.282;2024-02-23T10:46:14;7.50;99.90
2158;DHT22;41972;48.774;9.282;2024-02-23T10:48:44;7.30;99.90
2158;DHT22;41972;48.774;9.282;2024-02-23T10:51:13;7.20;99.90
2158;DHT22;41972;48.774;9.282;2024-02-23T10:53:39;6.80;99.90
2158;DHT22;41972;48.774;9.282;2024-02-23T10:56:06;7.00;99.90
2158;DHT22;41972;48.774;9.282;2024-02-23T10:58:32;7.30;99.90
2158;DHT22;41972;48.774;9.282;2024-02-23T11:01:03;7.10;99.90
2158;DHT22;41972;48.774;9.282;2024-02-23T11:03:30;7.50;99.90
2158;DHT22;41972;48.774;9.282;2024-02-23T11:05:56;7.30;99.90
2158;DHT22;41972;48.774;9.282;2024-02-23T11:08:22;7.20;99.90
2158;DHT22;41972;48.774;9.282;2024-02-23T11:10:51;7.30;99.90
2158;DHT22;41972;48.774;9.282;2024-02-23T11:13:17;7.80;99.90
2158;DHT22;41972;48.774;9.282;2024-02-23T11:15:43;7.10;99.90
2158;DHT22;41972;48.774;9.282;2024-02-23T11:18:23;7.60;99.90
2158;DHT22;41972;48.774;9.282;2024-02-23T11:20:56;7.60;99.90
2158;DHT22;41972;48.774;9.282;2024-02-23T11:23:24;7.50;99.90
2158;DHT22;41972;48.774;9.282;2024-02-23T11:26:04;7.60;99.90
2158;DHT22;41972;48.774;9.282;2024-02-23T11:28:31;7.50;99.90
2158;DHT22;41972;48.774;9.282;2024-02-23T11:30:57;7.30;99.90
2158;DHT22;41972;48.774;9.282;2024-02-23T11:33:28;7.10;99.90
2158;DHT22;41972;48.774;9.282;2024-02-23T11:36:05;7.40;99.90
2158;DHT22;41972;48.774;9.282;2024-02-23T11:38:32;7.40;99.90
2158;DHT22;41972;48.774;9.282;2024-02-23T11:40:59;7.70;99.90
2158;DHT22;41972;48.774;9.282;2024-02-23T11:43:24;7.40;99.90
2158;DHT22;41972;48.774;9.282;2024-02-23T11:45:50;7.60;99.90
2158;DHT22;41972;48.774;9.282;2024-02-23T11:48:16;7.40;99.90
2158;DHT22;41972;48.774;9.282;2024-02-23T11:50:42;7.40;99.90
2158;DHT22;41972;48.774;9.282;2024-02-23T11:53:08;7.30;99.90
2158;DHT22;41972;48.774;9.282;2024-02-23T11:55:35;7.60;99.90
2158;DHT22;41972;48.774;9.282;2024-02-23T11:58:01;8.10;99.90
2158;DHT22;41972;48.774;9.282;2024-02-23T12:00:27;8.00;99.90
2158;DHT22;41972;48.774;9.282;2024-02-23T12:02:55;7.60;99.90
2158;DHT22;41972;48.774;9.282;2024-02-23T12:05:20;7.70;99.90
2158;DHT22;41972;48.774;9.282;2024-02-23T12:07:47;7.60;99.90
2158;DHT22;41972;48.774;9.282;2024-02-23T12:10:12;7.60;99.90
2158;DHT22;41972;48.774;9.282;2024-02-23T12:12:39;7.90;99.90
2158;DHT22;41972;48.774;9.282;2024-02-23T12:15:06;8.00;99.90
2158;DHT22;41972;48.774;9.282;2024-02-23T12:17:31;8.10;99.90
2158;DHT22;41972;48.774;9.282;2024-02-23T12:20:01;9.00;99.90
2158;DHT22;41972;48.774;9.282;2024-02-23T12:22:28;8.30;99.90
2158;DHT22;41972;48.774;9.282;2024-02-23T12:24:57;7.70;99.90
2158;DHT22;41972;48.774;9.282;2024-02-23T12:27:22;7.50;99.90
2158;DHT22;41972;48.774;9.282;2024-02-23T12:29:52;8.00;99.90
2158;DHT22;41972;48.774;9.282;2024-02-23T12:32:20;8.20;99.90
2158;DHT22;41972;48.774;9.282;2024-02-23T12:34:46;8.50;99.90
2158;DHT22;41972;48.774;9.282;2024-02-23T12:37:14;8.10;99.90
2158;DHT22;41972;48.774;9.282;2024-02-23T12:39:41;8.70;99.90
2158;DHT22;41972;48.774;9.282;2024-02-23T12:42:08;8.90;99.90
2158;DHT22;41972;48.774;9.282;2024-02-23T12:44:34;8.00;99.90
2158;DHT22;41972;48.774;9.282;2024-02-23T12:46:59;8.10;99.90
2158;DHT22;41972;48.774;9.282;2024-02-23T12:49:25;8.40;99.90
2158;DHT22;41972;48.774;9.282;2024-02-23T12:51:50;8.10;99.90
2158;DHT22;41972;48.774;9.282;2024-02-23T12:54:16;8.20;99.90
2158;DHT22;41972;48.774;9.282;2024-02-23T12:56:41;8.20;99.90
2158;DHT22;41972;48.774;9.282;2024-02-23T12:59:08;8.10;99.90
2158;DHT22;41972;48.774;9.282;2024-02-23T13:01:35;7.80;99.90
2158;DHT22;41972;48.774;9.282;2024-02-23T13:04:03;7.90;99.90
2158;DHT22;41972;48.774;9.282;2024-02-23T13:06:38;8.10;99.90
2158;DHT22;41972;48.774;9.282;2024-02-23T13:09:04;8.70;99.90
2158;DHT22;41972;48.774;9.282;2024-02-23T13:11:31;8.50;99.90
2158;DHT22;41972;48.774;9.282;2024-02-23T13:13:56;8.20;99.90
2158;DHT22;41972;48.774;9.282;2024-02-23T13:16:22;8.00;99.90
2158;DHT22;41972;48.774;9.282;2024-02-23T13:18:47;8.00;99.90
2158;DHT22;41972;48.774;9.282;2024-02-23T13:21:14;8.50;99.90
2158;DHT22;41972;48.774;9.282;2024-02-23T13:23:39;7.90;99.90
2158;DHT22;41972;48.774;9.282;2024-02-23T13:26:07;8.20;99.90
2158;DHT22;41972;48.774;9.282;2024-02-23T13:28:32;8.10;99.90
2158;DHT22;41972;48.774;9.282;2024-02-23T13:30:58;8.00;99.90
2158;DHT22;41972;48.774;9.282;2024-02-23T13:33:23;8.10;99.90
2158;DHT22;41972;48.774;9.282;2024-02-23T13:35:49;8.40;99.90
2158;DHT22;41972;48.774;9.282;2024-02-23T13:38:15;8.30;99.90
2158;DHT22;41972;48.774;9.282;2024-02-23T13:40:40;8.30;99.90
2158;DHT22;41972;48.774;9.282;2024-02-23T13:43:06;8.20;99.90
2158;DHT22;41972;48.774;9.282;2024-02-23T13:45:31;8.10;99.90
2158;DHT22;41972;48.774;9.282;2024-02-23T13:47:58;7.90;99.90
2158;DHT22;41972;48.774;9.282;2024-02-23T13:50:24;8.00;99.90
2158;DHT22;41972;48.774;9.282;2024-02-23T13:52:51;8.10;99.90
2158;DHT22;41972;48.774;9.282;2024-02-23T13:55:17;8.30;99.90
2158;DHT22;41972;48.774;9.282;2024-02-23T13:57:43;8.50;99.90
2158;DHT22;41972;48.774;9.282;2024-02-23T14:00:09;8.10;99.90
2158;DHT22;41972;48.774;9.282;2024-02-23T14:02:38;8.00;99.90
2158;DHT22;41972;48.774;9.282;2024-02-23T14:05:06;8.00;99.90
2158;DHT22;41972;48.774;9.282;2024-02-23T14:07:37;8.10;99.90
2158;DHT22;41972;48.774;9.282;2024-02-23T14:10:03;8.10;99.90
2158;DHT22;41972;48.774;9.282;2024-02-23T14:12:29;8.40;99.90
2158;DHT22;41972;48.774;9.282;2024-02-23T14:14:55;8.60;99.90
2158;DHT22;41972;48.774;9.282;2024-02-23T14:17:20;8.20;99.90
2158;DHT22;41972;48.774;9.282;2024-02-23T14:19:46;8.40;99.90
2158;DHT22;41972;48.774;9.282;2024-02-23T14:22:12;8.40;99.90
2158;DHT22;41972;48.774;9.282;2024-02-23T14:24:37;8.50;99.90
2158;DHT22;41972;48.774;9.282;2024-02-23T14:27:03;8.20;99.90
2158;DHT22;41972;48.774;9.282;2024-02-23T14:29:28;8.10;99.90
2158;DHT22;41972;48.774;9.282;2024-02-23T14:31:54;8.30;99.90
2158;DHT22;41972;48.774;9.282;2024-02-23T14:34:19;8.20;99.90
2158;DHT22;41972;48.774;9.282;2024-02-23T14:36:49;8.20;99.90
2158;DHT22;41972;48.774;9.282;2024-02-23T14:39:14;8.30;99.90
2158;DHT22;41972;48.774;9.282;2024-02-23T14:41:40;8.30;99.90
2158;DHT22;41972;48.774;9.282;2024-02-23T14:44:05;8.30;99.90
2158;DHT22;41972;48.774;9.282;2024-02-23T14:46:31;8.40;99.90
2158;DHT22;41972;48.774;9.282;2024-02-23T14:48:56;8.30;99.90
2158;DHT22;41972;48.774;9.282;2024-02-23T14:51:22;8.40;99.90
2158;DHT22;41972;48.774;9.282;2024-02-23T14:53:47;8.50;99.90
2158;DHT22;41972;48.774;9.282;2024-02-23T14:56:13;8.60;99.90
2158;DHT22;41972;48.774;9.282;2024-02-23T14:58:39;8.50;99.90
2158;DHT22;41972;48.774;9.282;2024-02-23T15:01:05;8.30;99.90
2158;DHT22;41972;48.774;9.282;2024-02-23T15:03:31;8.30;99.90
2158;DHT22;41972;48.774;9.282;2024-02-23T15:05:58;8.30;99.90
2158;DHT22;41972;48.774;9.282;2024-02-23T15:08:23;8.20;99.90
2158;DHT22;41972;48.774;9.282;2024-02-23T15:10:49;8.10;99.90
2158;DHT22;41972;48.774;9.282;2024-02-23T15:13:17;8.40;99.90
2158;DHT22;41972;48.774;9.282;2024-02-23T15:15:42;8.40;99.90
2158;DHT22;41972;48.774;9.282;2024-02-23T15:18:08;8.70;99.90
2158;DHT22;41972;48.774;9.282;2024-02-23T15:20:33;8.60;99.90
2158;DHT22;41972;48.774;9.282;2024-02-23T15:23:01;8.80;99.90
2158;DHT22;41972;48.774;9.282;2024-02-23T15:25:27;9.00;99.90
2158;DHT22;41972;48.774;9.282;2024-02-23T15:27:53;8.40;99.90
2158;DHT22;41972;48.774;9.282;2024-02-23T15:30:23;8.10;99.90
2158;DHT22;41972;48.774;9.282;2024-02-23T15:32:48;7.90;99.90
2158;DHT22;41972;48.774;9.282;2024-02-23T15:35:14;8.10;99.90
2158;DHT22;41972;48.774;9.282;2024-02-23T15:37:39;7.90;99.90
2158;DHT22;41972;48.774;9.282;2024-02-23T15:40:05;8.00;99.90
2158;DHT22;41972;48.774;9.282;2024-02-23T15:42:31;8.10;99.90
2158;DHT22;41972;48.774;9.282;2024-02-23T15:44:57;8.10;99.90
2158;DHT22;41972;48.774;9.282;2024-02-23T15:47:22;8.10;99.90
2158;DHT22;41972;48.774;9.282;2024-02-23T15:49:48;8.00;99.90
2158;DHT22;41972;48.774;9.282;2024-02-23T15:52:16;8.20;99.90
2158;DHT22;41972;48.774;9.282;2024-02-23T15:54:42;8.30;99.90